Terminal Aerodrome Forecast
Issued by NWS

Home | Current Version | Previous Version | Text Only | Print | Product List | Glossary On
Versions: 1 2 3 4 5 6 7 8 9 10 11 12 13 14 15 16 17 18 19 20 21 22 23 24
242
FTUS44 KOUN 162323
TAFPNC
TAF
KPNC 162323Z 1700/1724 17012KT P6SM BKN100 BKN250
     FM170400 16010KT 6SM -RA BKN040
     FM170900 17007KT 5SM BR OVC012
     FM171600 18006KT P6SM OVC020=

USA.gov is the U.S. government's official web portal to all federal, state and local government web resources and services.